Badgeworth, United Kingdom
Current Conditions -  °F | °C
As of 6:50 AM on Thursday 23 Oct 2014 (Local Time) from EGBJ Reporting Station
Light Rain Light Rain  
Wind Chill: 54°   Ceiling: 3500
Heat Index: 54°   Visibility: 6mi
Dew Point: 52°   Wind: 9mph
Humidity: 94%   Direction: 200°SSW
Pressure: 30.09"   Gusts: NA
Location:  51.91°N, 2.11°W
Report Text: EGBJ 230550Z 20008KT 9999 -RADZ BKN035 12/11 Q1019
Loading
Personal Weather Stations






























Interactive Weather Map
Tropical Storm Tracking
New forecast layout! Learn more

10-Day Weather Forecast

Advertisements
Track Severe Weather on mobile